sensor_id;sensor_type;location;lat;lon;timestamp;temperature;humidity
31783;DHT22;18351;47.560;9.708;2024-03-29T00:01:49;4.80;99.90
31783;DHT22;18351;47.560;9.708;2024-03-29T00:04:15;4.90;99.90
31783;DHT22;18351;47.560;9.708;2024-03-29T00:06:40;5.00;99.90
31783;DHT22;18351;47.560;9.708;2024-03-29T00:09:06;5.20;99.90
31783;DHT22;18351;47.560;9.708;2024-03-29T00:11:32;5.30;99.90
31783;DHT22;18351;47.560;9.708;2024-03-29T00:13:57;5.30;99.90
31783;DHT22;18351;47.560;9.708;2024-03-29T00:16:23;5.40;99.90
31783;DHT22;18351;47.560;9.708;2024-03-29T00:18:54;5.40;99.90
31783;DHT22;18351;47.560;9.708;2024-03-29T00:21:19;5.30;99.90
31783;DHT22;18351;47.560;9.708;2024-03-29T00:23:45;5.20;99.90
31783;DHT22;18351;47.560;9.708;2024-03-29T00:26:11;5.10;99.90
31783;DHT22;18351;47.560;9.708;2024-03-29T00:28:37;5.10;99.90
31783;DHT22;18351;47.560;9.708;2024-03-29T00:31:03;5.10;99.90
31783;DHT22;18351;47.560;9.708;2024-03-29T00:33:29;5.00;99.90
31783;DHT22;18351;47.560;9.708;2024-03-29T00:35:55;4.90;99.90
31783;DHT22;18351;47.560;9.708;2024-03-29T00:38:21;4.80;99.90
31783;DHT22;18351;47.560;9.708;2024-03-29T00:40:46;4.80;99.90
31783;DHT22;18351;47.560;9.708;2024-03-29T00:43:12;4.90;99.90
31783;DHT22;18351;47.560;9.708;2024-03-29T00:45:37;4.90;99.90
31783;DHT22;18351;47.560;9.708;2024-03-29T00:48:03;4.90;99.90
31783;DHT22;18351;47.560;9.708;2024-03-29T00:50:29;4.80;99.90
31783;DHT22;18351;47.560;9.708;2024-03-29T00:52:54;4.90;99.90
31783;DHT22;18351;47.560;9.708;2024-03-29T00:55:20;4.90;99.90
31783;DHT22;18351;47.560;9.708;2024-03-29T00:57:46;4.90;99.90
31783;DHT22;18351;47.560;9.708;2024-03-29T01:00:11;4.90;99.90
31783;DHT22;18351;47.560;9.708;2024-03-29T01:02:37;4.90;99.90
31783;DHT22;18351;47.560;9.708;2024-03-29T01:05:03;4.80;99.90
31783;DHT22;18351;47.560;9.708;2024-03-29T01:07:28;4.90;99.90
31783;DHT22;18351;47.560;9.708;2024-03-29T01:09:54;5.00;99.90
31783;DHT22;18351;47.560;9.708;2024-03-29T01:12:20;5.00;99.90
31783;DHT22;18351;47.560;9.708;2024-03-29T01:14:45;5.10;99.90
31783;DHT22;18351;47.560;9.708;2024-03-29T01:17:11;5.10;99.90
31783;DHT22;18351;47.560;9.708;2024-03-29T01:19:37;5.20;99.90
31783;DHT22;18351;47.560;9.708;2024-03-29T01:22:03;5.20;99.90
31783;DHT22;18351;47.560;9.708;2024-03-29T01:24:29;5.30;99.90
31783;DHT22;18351;47.560;9.708;2024-03-29T01:26:55;5.40;99.90
31783;DHT22;18351;47.560;9.708;2024-03-29T01:29:21;5.50;99.90
31783;DHT22;18351;47.560;9.708;2024-03-29T01:31:46;5.70;99.90
31783;DHT22;18351;47.560;9.708;2024-03-29T01:34:12;5.80;99.90
31783;DHT22;18351;47.560;9.708;2024-03-29T01:36:37;6.00;99.90
31783;DHT22;18351;47.560;9.708;2024-03-29T01:39:03;6.10;99.90
31783;DHT22;18351;47.560;9.708;2024-03-29T01:41:29;6.20;99.90
31783;DHT22;18351;47.560;9.708;2024-03-29T01:43:55;6.30;99.90
31783;DHT22;18351;47.560;9.708;2024-03-29T01:46:22;6.60;99.90
31783;DHT22;18351;47.560;9.708;2024-03-29T01:48:50;6.80;99.50
31783;DHT22;18351;47.560;9.708;2024-03-29T01:51:17;7.00;99.10
31783;DHT22;18351;47.560;9.708;2024-03-29T01:53:44;7.10;98.70
31783;DHT22;18351;47.560;9.708;2024-03-29T01:56:10;7.20;98.00
31783;DHT22;18351;47.560;9.708;2024-03-29T01:58:37;7.30;97.50
31783;DHT22;18351;47.560;9.708;2024-03-29T02:01:05;7.30;96.80
31783;DHT22;18351;47.560;9.708;2024-03-29T02:03:32;7.50;96.30
31783;DHT22;18351;47.560;9.708;2024-03-29T02:05:58;7.60;95.30
31783;DHT22;18351;47.560;9.708;2024-03-29T02:08:25;7.70;95.60
31783;DHT22;18351;47.560;9.708;2024-03-29T02:10:51;7.70;94.80
31783;DHT22;18351;47.560;9.708;2024-03-29T02:13:17;7.90;94.40
31783;DHT22;18351;47.560;9.708;2024-03-29T02:15:42;7.90;94.20
31783;DHT22;18351;47.560;9.708;2024-03-29T02:18:08;7.80;94.30
31783;DHT22;18351;47.560;9.708;2024-03-29T02:20:34;7.90;94.10
31783;DHT22;18351;47.560;9.708;2024-03-29T02:23:11;7.80;94.00
31783;DHT22;18351;47.560;9.708;2024-03-29T02:25:37;7.70;94.40
31783;DHT22;18351;47.560;9.708;2024-03-29T02:28:03;7.60;94.30
31783;DHT22;18351;47.560;9.708;2024-03-29T02:30:29;7.50;93.80
31783;DHT22;18351;47.560;9.708;2024-03-29T02:32:59;7.50;93.80
31783;DHT22;18351;47.560;9.708;2024-03-29T02:35:25;7.60;93.70
31783;DHT22;18351;47.560;9.708;2024-03-29T02:37:51;7.60;93.70
31783;DHT22;18351;47.560;9.708;2024-03-29T02:40:16;7.80;92.90
31783;DHT22;18351;47.560;9.708;2024-03-29T02:42:42;7.80;92.40
31783;DHT22;18351;47.560;9.708;2024-03-29T02:45:08;7.90;92.10
31783;DHT22;18351;47.560;9.708;2024-03-29T02:47:33;7.90;92.70
31783;DHT22;18351;47.560;9.708;2024-03-29T02:49:59;7.80;92.70
31783;DHT22;18351;47.560;9.708;2024-03-29T02:52:24;7.80;92.30
31783;DHT22;18351;47.560;9.708;2024-03-29T02:54:50;7.80;92.00
31783;DHT22;18351;47.560;9.708;2024-03-29T02:57:16;7.70;92.70
31783;DHT22;18351;47.560;9.708;2024-03-29T02:59:42;7.70;93.50
31783;DHT22;18351;47.560;9.708;2024-03-29T03:02:07;7.60;93.50
31783;DHT22;18351;47.560;9.708;2024-03-29T03:04:33;7.50;94.10
31783;DHT22;18351;47.560;9.708;2024-03-29T03:06:59;7.30;94.60
31783;DHT22;18351;47.560;9.708;2024-03-29T03:09:44;7.30;94.80
31783;DHT22;18351;47.560;9.708;2024-03-29T03:12:31;7.20;94.40
31783;DHT22;18351;47.560;9.708;2024-03-29T03:15:00;7.20;94.30
31783;DHT22;18351;47.560;9.708;2024-03-29T03:17:29;7.20;94.90
31783;DHT22;18351;47.560;9.708;2024-03-29T03:19:55;7.10;94.10
31783;DHT22;18351;47.560;9.708;2024-03-29T03:22:20;7.20;94.40
31783;DHT22;18351;47.560;9.708;2024-03-29T03:24:46;7.30;94.40
31783;DHT22;18351;47.560;9.708;2024-03-29T03:27:11;7.30;94.50
31783;DHT22;18351;47.560;9.708;2024-03-29T03:29:37;7.30;94.10
31783;DHT22;18351;47.560;9.708;2024-03-29T03:32:03;7.30;94.20
31783;DHT22;18351;47.560;9.708;2024-03-29T03:34:29;7.40;95.50
31783;DHT22;18351;47.560;9.708;2024-03-29T03:36:54;7.30;95.40
31783;DHT22;18351;47.560;9.708;2024-03-29T03:39:20;7.50;93.30
31783;DHT22;18351;47.560;9.708;2024-03-29T03:41:45;7.70;91.30
31783;DHT22;18351;47.560;9.708;2024-03-29T03:44:12;8.00;91.10
31783;DHT22;18351;47.560;9.708;2024-03-29T03:46:37;8.20;91.50
31783;DHT22;18351;47.560;9.708;2024-03-29T03:49:03;8.30;91.50
31783;DHT22;18351;47.560;9.708;2024-03-29T03:51:28;8.30;91.60
31783;DHT22;18351;47.560;9.708;2024-03-29T03:53:54;8.20;91.50
31783;DHT22;18351;47.560;9.708;2024-03-29T03:56:19;8.20;90.80
31783;DHT22;18351;47.560;9.708;2024-03-29T03:58:45;8.30;90.60
31783;DHT22;18351;47.560;9.708;2024-03-29T04:01:11;8.30;90.60
31783;DHT22;18351;47.560;9.708;2024-03-29T04:03:36;8.30;90.50
31783;DHT22;18351;47.560;9.708;2024-03-29T04:06:05;8.50;90.20
31783;DHT22;18351;47.560;9.708;2024-03-29T04:08:31;8.50;88.80
31783;DHT22;18351;47.560;9.708;2024-03-29T04:10:57;8.60;90.00
31783;DHT22;18351;47.560;9.708;2024-03-29T04:13:22;8.60;90.10
31783;DHT22;18351;47.560;9.708;2024-03-29T04:15:48;8.50;89.80
31783;DHT22;18351;47.560;9.708;2024-03-29T04:18:14;8.50;90.40
31783;DHT22;18351;47.560;9.708;2024-03-29T04:20:39;8.50;90.20
31783;DHT22;18351;47.560;9.708;2024-03-29T04:23:06;8.30;91.10
31783;DHT22;18351;47.560;9.708;2024-03-29T04:25:31;8.20;91.40
31783;DHT22;18351;47.560;9.708;2024-03-29T04:27:58;8.20;91.60
31783;DHT22;18351;47.560;9.708;2024-03-29T04:30:23;8.10;91.60
31783;DHT22;18351;47.560;9.708;2024-03-29T04:32:49;8.20;91.80
31783;DHT22;18351;47.560;9.708;2024-03-29T04:35:14;8.20;92.50
31783;DHT22;18351;47.560;9.708;2024-03-29T04:37:40;8.20;92.20
31783;DHT22;18351;47.560;9.708;2024-03-29T04:40:06;8.30;92.50
31783;DHT22;18351;47.560;9.708;2024-03-29T04:42:32;8.40;92.10
31783;DHT22;18351;47.560;9.708;2024-03-29T04:44:57;8.40;91.30
31783;DHT22;18351;47.560;9.708;2024-03-29T04:47:23;8.60;91.10
31783;DHT22;18351;47.560;9.708;2024-03-29T04:49:48;8.80;90.60
31783;DHT22;18351;47.560;9.708;2024-03-29T04:52:14;8.90;91.10
31783;DHT22;18351;47.560;9.708;2024-03-29T04:54:40;9.10;89.80
31783;DHT22;18351;47.560;9.708;2024-03-29T04:57:05;9.40;87.30
31783;DHT22;18351;47.560;9.708;2024-03-29T04:59:34;9.60;86.60
31783;DHT22;18351;47.560;9.708;2024-03-29T05:02:00;9.70;88.80
31783;DHT22;18351;47.560;9.708;2024-03-29T05:04:25;9.80;87.60
31783;DHT22;18351;47.560;9.708;2024-03-29T05:06:55;9.80;86.90
31783;DHT22;18351;47.560;9.708;2024-03-29T05:09:21;9.80;85.80
31783;DHT22;18351;47.560;9.708;2024-03-29T05:11:47;9.80;86.50
31783;DHT22;18351;47.560;9.708;2024-03-29T05:14:16;9.80;86.70
31783;DHT22;18351;47.560;9.708;2024-03-29T05:16:46;9.70;86.90
31783;DHT22;18351;47.560;9.708;2024-03-29T05:19:13;9.70;87.50
31783;DHT22;18351;47.560;9.708;2024-03-29T05:21:39;9.60;88.30
31783;DHT22;18351;47.560;9.708;2024-03-29T05:24:05;9.60;89.80
31783;DHT22;18351;47.560;9.708;2024-03-29T05:26:31;9.50;88.90
31783;DHT22;18351;47.560;9.708;2024-03-29T05:28:56;9.60;88.30
31783;DHT22;18351;47.560;9.708;2024-03-29T05:31:26;9.70;88.00
31783;DHT22;18351;47.560;9.708;2024-03-29T05:33:52;9.90;85.60
31783;DHT22;18351;47.560;9.708;2024-03-29T05:36:17;10.00;86.10
31783;DHT22;18351;47.560;9.708;2024-03-29T05:38:44;10.10;85.80
31783;DHT22;18351;47.560;9.708;2024-03-29T05:41:10;10.20;85.00
31783;DHT22;18351;47.560;9.708;2024-03-29T05:43:35;10.20;84.60
31783;DHT22;18351;47.560;9.708;2024-03-29T05:46:02;10.20;85.70
31783;DHT22;18351;47.560;9.708;2024-03-29T05:48:28;10.30;84.80
31783;DHT22;18351;47.560;9.708;2024-03-29T05:50:54;10.30;86.90
31783;DHT22;18351;47.560;9.708;2024-03-29T05:53:19;10.30;86.20
31783;DHT22;18351;47.560;9.708;2024-03-29T05:55:45;10.30;86.20
31783;DHT22;18351;47.560;9.708;2024-03-29T05:58:11;10.40;87.60
31783;DHT22;18351;47.560;9.708;2024-03-29T06:00:36;10.40;88.30
31783;DHT22;18351;47.560;9.708;2024-03-29T06:03:02;10.40;87.40
31783;DHT22;18351;47.560;9.708;2024-03-29T06:05:28;10.60;86.10
31783;DHT22;18351;47.560;9.708;2024-03-29T06:07:54;10.80;87.00
31783;DHT22;18351;47.560;9.708;2024-03-29T06:10:20;11.00;91.40
31783;DHT22;18351;47.560;9.708;2024-03-29T06:12:46;11.00;92.20
31783;DHT22;18351;47.560;9.708;2024-03-29T06:15:11;10.70;93.00
31783;DHT22;18351;47.560;9.708;2024-03-29T06:17:55;10.50;93.70
31783;DHT22;18351;47.560;9.708;2024-03-29T06:20:21;10.30;94.20
31783;DHT22;18351;47.560;9.708;2024-03-29T06:22:46;10.10;92.50
31783;DHT22;18351;47.560;9.708;2024-03-29T06:25:12;10.00;92.60
31783;DHT22;18351;47.560;9.708;2024-03-29T06:27:37;9.90;93.00
31783;DHT22;18351;47.560;9.708;2024-03-29T06:30:04;9.80;93.40
31783;DHT22;18351;47.560;9.708;2024-03-29T06:32:31;9.80;93.90
31783;DHT22;18351;47.560;9.708;2024-03-29T06:34:57;9.70;94.70
31783;DHT22;18351;47.560;9.708;2024-03-29T06:37:23;9.70;94.30
31783;DHT22;18351;47.560;9.708;2024-03-29T06:39:51;9.80;93.90
31783;DHT22;18351;47.560;9.708;2024-03-29T06:42:16;9.80;93.60
31783;DHT22;18351;47.560;9.708;2024-03-29T06:44:42;10.00;94.70
31783;DHT22;18351;47.560;9.708;2024-03-29T06:47:08;10.00;95.90
31783;DHT22;18351;47.560;9.708;2024-03-29T06:49:34;10.10;96.50
31783;DHT22;18351;47.560;9.708;2024-03-29T06:52:00;10.10;96.60
31783;DHT22;18351;47.560;9.708;2024-03-29T06:54:27;10.00;97.40
31783;DHT22;18351;47.560;9.708;2024-03-29T06:56:56;10.00;98.00
31783;DHT22;18351;47.560;9.708;2024-03-29T06:59:22;10.00;98.20
31783;DHT22;18351;47.560;9.708;2024-03-29T07:01:48;10.00;98.30
31783;DHT22;18351;47.560;9.708;2024-03-29T07:04:20;10.10;97.90
31783;DHT22;18351;47.560;9.708;2024-03-29T07:06:46;10.10;97.50
31783;DHT22;18351;47.560;9.708;2024-03-29T07:09:13;10.20;96.70
31783;DHT22;18351;47.560;9.708;2024-03-29T07:11:40;10.30;96.20
31783;DHT22;18351;47.560;9.708;2024-03-29T07:14:05;10.30;96.00
31783;DHT22;18351;47.560;9.708;2024-03-29T07:16:31;10.40;95.10
31783;DHT22;18351;47.560;9.708;2024-03-29T07:18:57;10.60;95.50
31783;DHT22;18351;47.560;9.708;2024-03-29T07:21:23;10.70;94.70
31783;DHT22;18351;47.560;9.708;2024-03-29T07:23:49;10.80;94.40
31783;DHT22;18351;47.560;9.708;2024-03-29T07:26:15;11.00;94.30
31783;DHT22;18351;47.560;9.708;2024-03-29T07:28:40;11.10;94.10
31783;DHT22;18351;47.560;9.708;2024-03-29T07:31:06;11.20;94.00
31783;DHT22;18351;47.560;9.708;2024-03-29T07:33:36;11.20;92.60
31783;DHT22;18351;47.560;9.708;2024-03-29T07:36:02;11.40;92.60
31783;DHT22;18351;47.560;9.708;2024-03-29T07:38:29;11.60;92.40
31783;DHT22;18351;47.560;9.708;2024-03-29T07:40:55;11.70;92.20
31783;DHT22;18351;47.560;9.708;2024-03-29T07:43:21;11.80;91.60
31783;DHT22;18351;47.560;9.708;2024-03-29T07:45:47;12.00;91.60
31783;DHT22;18351;47.560;9.708;2024-03-29T07:48:14;12.20;92.00
31783;DHT22;18351;47.560;9.708;2024-03-29T07:50:41;12.30;91.90
31783;DHT22;18351;47.560;9.708;2024-03-29T07:53:07;12.40;91.80
31783;DHT22;18351;47.560;9.708;2024-03-29T07:55:33;12.50;92.00
31783;DHT22;18351;47.560;9.708;2024-03-29T07:57:59;12.70;91.80
31783;DHT22;18351;47.560;9.708;2024-03-29T08:00:26;12.80;91.70
31783;DHT22;18351;47.560;9.708;2024-03-29T08:02:52;12.90;90.90
31783;DHT22;18351;47.560;9.708;2024-03-29T08:05:21;13.10;90.90
31783;DHT22;18351;47.560;9.708;2024-03-29T08:07:47;13.30;90.50
31783;DHT22;18351;47.560;9.708;2024-03-29T08:10:13;13.60;90.80
31783;DHT22;18351;47.560;9.708;2024-03-29T08:12:38;13.80;90.90
31783;DHT22;18351;47.560;9.708;2024-03-29T08:15:04;14.10;88.00
31783;DHT22;18351;47.560;9.708;2024-03-29T08:17:30;14.30;85.70
31783;DHT22;18351;47.560;9.708;2024-03-29T08:19:56;14.50;84.20
31783;DHT22;18351;47.560;9.708;2024-03-29T08:22:21;14.70;84.10
31783;DHT22;18351;47.560;9.708;2024-03-29T08:24:47;14.90;85.90
31783;DHT22;18351;47.560;9.708;2024-03-29T08:27:12;15.20;80.50
31783;DHT22;18351;47.560;9.708;2024-03-29T08:29:40;15.30;82.40
31783;DHT22;18351;47.560;9.708;2024-03-29T08:32:06;15.50;81.10
31783;DHT22;18351;47.560;9.708;2024-03-29T08:34:32;15.80;79.40
31783;DHT22;18351;47.560;9.708;2024-03-29T08:37:01;16.00;78.90
31783;DHT22;18351;47.560;9.708;2024-03-29T08:39:28;16.20;80.70
31783;DHT22;18351;47.560;9.708;2024-03-29T08:41:54;16.40;77.40
31783;DHT22;18351;47.560;9.708;2024-03-29T08:44:19;16.50;75.60
31783;DHT22;18351;47.560;9.708;2024-03-29T08:46:45;16.60;72.00
31783;DHT22;18351;47.560;9.708;2024-03-29T08:49:10;16.80;69.90
31783;DHT22;18351;47.560;9.708;2024-03-29T08:51:36;17.00;70.50
31783;DHT22;18351;47.560;9.708;2024-03-29T08:54:01;17.10;70.30
31783;DHT22;18351;47.560;9.708;2024-03-29T08:56:33;17.30;68.60
31783;DHT22;18351;47.560;9.708;2024-03-29T08:59:05;17.40;70.00
31783;DHT22;18351;47.560;9.708;2024-03-29T09:01:35;17.40;66.50
31783;DHT22;18351;47.560;9.708;2024-03-29T09:04:01;17.50;67.60
31783;DHT22;18351;47.560;9.708;2024-03-29T09:06:26;17.70;69.10
31783;DHT22;18351;47.560;9.708;2024-03-29T09:08:52;17.80;67.60
31783;DHT22;18351;47.560;9.708;2024-03-29T09:11:18;17.80;64.60
31783;DHT22;18351;47.560;9.708;2024-03-29T09:13:43;17.90;66.90
31783;DHT22;18351;47.560;9.708;2024-03-29T09:16:09;17.80;67.80
31783;DHT22;18351;47.560;9.708;2024-03-29T09:18:35;17.80;66.60
31783;DHT22;18351;47.560;9.708;2024-03-29T09:21:01;17.70;66.80
31783;DHT22;18351;47.560;9.708;2024-03-29T09:23:27;17.60;66.70
31783;DHT22;18351;47.560;9.708;2024-03-29T09:25:55;17.60;66.50
31783;DHT22;18351;47.560;9.708;2024-03-29T09:28:22;17.50;66.20
31783;DHT22;18351;47.560;9.708;2024-03-29T09:30:48;17.50;66.40
31783;DHT22;18351;47.560;9.708;2024-03-29T09:33:13;17.60;65.30
31783;DHT22;18351;47.560;9.708;2024-03-29T09:35:39;17.70;65.80
31783;DHT22;18351;47.560;9.708;2024-03-29T09:38:05;17.70;64.90
31783;DHT22;18351;47.560;9.708;2024-03-29T09:40:31;17.70;64.00
31783;DHT22;18351;47.560;9.708;2024-03-29T09:43:00;17.80;64.00
31783;DHT22;18351;47.560;9.708;2024-03-29T09:45:34;17.80;63.80
31783;DHT22;18351;47.560;9.708;2024-03-29T09:48:03;17.80;63.40
31783;DHT22;18351;47.560;9.708;2024-03-29T09:50:31;17.80;63.10
31783;DHT22;18351;47.560;9.708;2024-03-29T09:52:58;17.80;63.20
31783;DHT22;18351;47.560;9.708;2024-03-29T09:55:23;17.70;62.80
31783;DHT22;18351;47.560;9.708;2024-03-29T09:57:50;17.70;63.20
31783;DHT22;18351;47.560;9.708;2024-03-29T10:00:16;17.70;63.70
31783;DHT22;18351;47.560;9.708;2024-03-29T10:02:43;17.80;63.50
31783;DHT22;18351;47.560;9.708;2024-03-29T10:05:11;17.90;63.70
31783;DHT22;18351;47.560;9.708;2024-03-29T10:07:38;17.90;61.80
31783;DHT22;18351;47.560;9.708;2024-03-29T10:10:04;17.90;62.70
31783;DHT22;18351;47.560;9.708;2024-03-29T10:12:30;17.90;63.20
31783;DHT22;18351;47.560;9.708;2024-03-29T10:14:56;18.00;63.80
31783;DHT22;18351;47.560;9.708;2024-03-29T10:17:31;18.00;64.90
31783;DHT22;18351;47.560;9.708;2024-03-29T10:20:04;18.10;62.40
31783;DHT22;18351;47.560;9.708;2024-03-29T10:22:35;18.20;61.40
31783;DHT22;18351;47.560;9.708;2024-03-29T10:25:01;18.30;62.80
31783;DHT22;18351;47.560;9.708;2024-03-29T10:27:27;18.30;62.10
31783;DHT22;18351;47.560;9.708;2024-03-29T10:29:53;18.30;61.80
31783;DHT22;18351;47.560;9.708;2024-03-29T10:32:18;18.30;60.70
31783;DHT22;18351;47.560;9.708;2024-03-29T10:34:44;18.40;60.30
31783;DHT22;18351;47.560;9.708;2024-03-29T10:37:09;18.40;61.50
31783;DHT22;18351;47.560;9.708;2024-03-29T10:39:36;18.50;63.10
31783;DHT22;18351;47.560;9.708;2024-03-29T10:42:01;18.60;61.80
31783;DHT22;18351;47.560;9.708;2024-03-29T10:44:29;18.80;61.40
31783;DHT22;18351;47.560;9.708;2024-03-29T10:46:56;19.00;59.50
31783;DHT22;18351;47.560;9.708;2024-03-29T10:49:24;19.20;59.50
31783;DHT22;18351;47.560;9.708;2024-03-29T10:51:50;19.40;58.60
31783;DHT22;18351;47.560;9.708;2024-03-29T10:54:16;19.50;59.00
31783;DHT22;18351;47.560;9.708;2024-03-29T10:56:47;19.70;57.50
31783;DHT22;18351;47.560;9.708;2024-03-29T10:59:44;19.80;57.40
31783;DHT22;18351;47.560;9.708;2024-03-29T11:02:24;19.90;56.90
31783;DHT22;18351;47.560;9.708;2024-03-29T11:04:57;20.00;56.30
31783;DHT22;18351;47.560;9.708;2024-03-29T11:07:25;20.10;56.30
31783;DHT22;18351;47.560;9.708;2024-03-29T11:09:54;20.10;55.30
31783;DHT22;18351;47.560;9.708;2024-03-29T11:12:22;20.10;55.00
31783;DHT22;18351;47.560;9.708;2024-03-29T11:14:57;20.10;55.20
31783;DHT22;18351;47.560;9.708;2024-03-29T11:17:24;20.10;55.60
31783;DHT22;18351;47.560;9.708;2024-03-29T11:19:51;20.10;56.20
31783;DHT22;18351;47.560;9.708;2024-03-29T11:22:16;20.10;54.80
31783;DHT22;18351;47.560;9.708;2024-03-29T11:24:43;20.40;55.30
31783;DHT22;18351;47.560;9.708;2024-03-29T11:27:11;20.70;56.20
31783;DHT22;18351;47.560;9.708;2024-03-29T11:29:41;21.00;53.90
31783;DHT22;18351;47.560;9.708;2024-03-29T11:32:08;21.10;53.20
31783;DHT22;18351;47.560;9.708;2024-03-29T11:34:34;21.20;53.50
31783;DHT22;18351;47.560;9.708;2024-03-29T11:37:12;21.30;53.00
31783;DHT22;18351;47.560;9.708;2024-03-29T11:39:39;21.70;53.30
31783;DHT22;18351;47.560;9.708;2024-03-29T11:42:05;21.70;53.30
31783;DHT22;18351;47.560;9.708;2024-03-29T11:44:31;21.70;53.50
31783;DHT22;18351;47.560;9.708;2024-03-29T11:46:58;21.60;54.20
31783;DHT22;18351;47.560;9.708;2024-03-29T11:49:24;21.60;52.50
31783;DHT22;18351;47.560;9.708;2024-03-29T11:51:50;21.80;52.60
31783;DHT22;18351;47.560;9.708;2024-03-29T11:54:15;21.90;50.90
31783;DHT22;18351;47.560;9.708;2024-03-29T11:56:42;22.10;51.40
31783;DHT22;18351;47.560;9.708;2024-03-29T11:59:08;22.30;50.70
31783;DHT22;18351;47.560;9.708;2024-03-29T12:01:35;22.40;49.90
31783;DHT22;18351;47.560;9.708;2024-03-29T12:04:04;22.30;50.60
31783;DHT22;18351;47.560;9.708;2024-03-29T12:06:30;22.20;50.50
31783;DHT22;18351;47.560;9.708;2024-03-29T12:08:55;21.90;49.90
31783;DHT22;18351;47.560;9.708;2024-03-29T12:11:22;21.70;49.90
31783;DHT22;18351;47.560;9.708;2024-03-29T12:13:48;21.50;49.90
31783;DHT22;18351;47.560;9.708;2024-03-29T12:16:15;21.50;50.10
31783;DHT22;18351;47.560;9.708;2024-03-29T12:18:40;21.50;50.60
31783;DHT22;18351;47.560;9.708;2024-03-29T12:21:06;21.50;51.10
31783;DHT22;18351;47.560;9.708;2024-03-29T12:23:32;21.50;50.30
31783;DHT22;18351;47.560;9.708;2024-03-29T12:25:58;21.50;49.20
31783;DHT22;18351;47.560;9.708;2024-03-29T12:28:25;21.50;50.20
31783;DHT22;18351;47.560;9.708;2024-03-29T12:30:51;21.60;50.80
31783;DHT22;18351;47.560;9.708;2024-03-29T12:33:19;21.50;50.50
31783;DHT22;18351;47.560;9.708;2024-03-29T12:35:47;21.60;50.70
31783;DHT22;18351;47.560;9.708;2024-03-29T12:38:16;21.60;49.30
31783;DHT22;18351;47.560;9.708;2024-03-29T12:40:43;21.70;49.00
31783;DHT22;18351;47.560;9.708;2024-03-29T12:43:10;21.70;48.40
31783;DHT22;18351;47.560;9.708;2024-03-29T12:45:38;21.70;49.20
31783;DHT22;18351;47.560;9.708;2024-03-29T12:48:19;21.50;49.20
31783;DHT22;18351;47.560;9.708;2024-03-29T12:50:45;21.40;49.20
31783;DHT22;18351;47.560;9.708;2024-03-29T12:53:14;21.50;49.20
31783;DHT22;18351;47.560;9.708;2024-03-29T12:55:40;21.40;49.10
31783;DHT22;18351;47.560;9.708;2024-03-29T12:58:09;21.50;49.20
31783;DHT22;18351;47.560;9.708;2024-03-29T13:00:37;21.50;48.30
31783;DHT22;18351;47.560;9.708;2024-03-29T13:03:02;21.50;48.60
31783;DHT22;18351;47.560;9.708;2024-03-29T13:05:28;21.50;48.00
31783;DHT22;18351;47.560;9.708;2024-03-29T13:07:59;21.50;48.30
31783;DHT22;18351;47.560;9.708;2024-03-29T13:10:25;21.50;48.30
31783;DHT22;18351;47.560;9.708;2024-03-29T13:12:51;21.60;48.40
31783;DHT22;18351;47.560;9.708;2024-03-29T13:15:21;21.70;47.90
31783;DHT22;18351;47.560;9.708;2024-03-29T13:17:49;21.80;48.30
31783;DHT22;18351;47.560;9.708;2024-03-29T13:20:16;21.90;47.20
31783;DHT22;18351;47.560;9.708;2024-03-29T13:22:42;21.80;47.80
31783;DHT22;18351;47.560;9.708;2024-03-29T13:25:10;21.80;48.30
31783;DHT22;18351;47.560;9.708;2024-03-29T13:27:40;21.80;47.50
31783;DHT22;18351;47.560;9.708;2024-03-29T13:30:09;21.80;46.40
31783;DHT22;18351;47.560;9.708;2024-03-29T13:32:36;21.80;47.50
31783;DHT22;18351;47.560;9.708;2024-03-29T13:35:01;21.80;47.20
31783;DHT22;18351;47.560;9.708;2024-03-29T13:37:33;21.70;47.70
31783;DHT22;18351;47.560;9.708;2024-03-29T13:39:59;21.60;48.40
31783;DHT22;18351;47.560;9.708;2024-03-29T13:42:25;21.50;47.40
31783;DHT22;18351;47.560;9.708;2024-03-29T13:44:51;21.40;48.10
31783;DHT22;18351;47.560;9.708;2024-03-29T13:47:17;21.30;47.00
31783;DHT22;18351;47.560;9.708;2024-03-29T13:49:43;21.20;46.70
31783;DHT22;18351;47.560;9.708;2024-03-29T13:52:09;21.10;47.30
31783;DHT22;18351;47.560;9.708;2024-03-29T13:54:34;21.10;47.00
31783;DHT22;18351;47.560;9.708;2024-03-29T13:57:00;21.00;46.90
31783;DHT22;18351;47.560;9.708;2024-03-29T13:59:27;20.90;46.70
31783;DHT22;18351;47.560;9.708;2024-03-29T14:01:53;20.80;46.20
31783;DHT22;18351;47.560;9.708;2024-03-29T14:04:18;20.80;47.00
31783;DHT22;18351;47.560;9.708;2024-03-29T14:06:44;20.80;46.00
31783;DHT22;18351;47.560;9.708;2024-03-29T14:09:09;20.80;46.40
31783;DHT22;18351;47.560;9.708;2024-03-29T14:11:35;20.80;46.40
31783;DHT22;18351;47.560;9.708;2024-03-29T14:14:00;20.60;47.60
31783;DHT22;18351;47.560;9.708;2024-03-29T14:16:26;20.60;47.60
31783;DHT22;18351;47.560;9.708;2024-03-29T14:18:51;20.50;48.40
31783;DHT22;18351;47.560;9.708;2024-03-29T14:21:17;20.50;48.60
31783;DHT22;18351;47.560;9.708;2024-03-29T14:23:43;20.30;47.90
31783;DHT22;18351;47.560;9.708;2024-03-29T14:26:08;20.30;47.80
31783;DHT22;18351;47.560;9.708;2024-03-29T14:28:34;20.20;48.50
31783;DHT22;18351;47.560;9.708;2024-03-29T14:30:59;20.10;48.60
31783;DHT22;18351;47.560;9.708;2024-03-29T14:33:25;20.00;47.50
31783;DHT22;18351;47.560;9.708;2024-03-29T14:35:50;20.00;47.40
31783;DHT22;18351;47.560;9.708;2024-03-29T14:38:16;20.00;47.90
31783;DHT22;18351;47.560;9.708;2024-03-29T14:40:42;19.90;48.40
31783;DHT22;18351;47.560;9.708;2024-03-29T14:43:07;19.90;48.30
31783;DHT22;18351;47.560;9.708;2024-03-29T14:45:33;19.80;48.30
31783;DHT22;18351;47.560;9.708;2024-03-29T14:47:59;19.80;48.30
31783;DHT22;18351;47.560;9.708;2024-03-29T14:50:24;19.70;48.60
31783;DHT22;18351;47.560;9.708;2024-03-29T14:52:50;19.60;48.60
31783;DHT22;18351;47.560;9.708;2024-03-29T14:55:16;19.60;49.00
31783;DHT22;18351;47.560;9.708;2024-03-29T14:57:41;19.60;49.20
31783;DHT22;18351;47.560;9.708;2024-03-29T15:00:07;19.60;49.40
31783;DHT22;18351;47.560;9.708;2024-03-29T15:02:34;19.50;48.20
31783;DHT22;18351;47.560;9.708;2024-03-29T15:05:00;19.50;48.80
31783;DHT22;18351;47.560;9.708;2024-03-29T15:07:25;19.60;47.70
31783;DHT22;18351;47.560;9.708;2024-03-29T15:09:51;19.50;48.60
31783;DHT22;18351;47.560;9.708;2024-03-29T15:12:17;19.50;48.70
31783;DHT22;18351;47.560;9.708;2024-03-29T15:14:42;19.50;48.20
31783;DHT22;18351;47.560;9.708;2024-03-29T15:17:08;19.50;48.80
31783;DHT22;18351;47.560;9.708;2024-03-29T15:19:34;19.40;48.60
31783;DHT22;18351;47.560;9.708;2024-03-29T15:21:59;19.40;48.70
31783;DHT22;18351;47.560;9.708;2024-03-29T15:24:25;19.40;47.80
31783;DHT22;18351;47.560;9.708;2024-03-29T15:26:50;19.40;48.50
31783;DHT22;18351;47.560;9.708;2024-03-29T15:29:18;19.40;48.20
31783;DHT22;18351;47.560;9.708;2024-03-29T15:31:44;19.40;48.50
31783;DHT22;18351;47.560;9.708;2024-03-29T15:34:10;19.40;48.60